sensor_id;sensor_type;location;lat;lon;timestamp;P1;durP1;ratioP1;P2;durP2;ratioP2
9128;SDS011;4599;50.906;6.786;2022-07-30T00:02:09;9.53;;;3.90;;
9128;SDS011;4599;50.906;6.786;2022-07-30T00:06:10;10.23;;;4.27;;
9128;SDS011;4599;50.906;6.786;2022-07-30T00:10:12;7.43;;;3.23;;
9128;SDS011;4599;50.906;6.786;2022-07-30T00:14:14;5.30;;;3.13;;
9128;SDS011;4599;50.906;6.786;2022-07-30T00:18:17;7.00;;;3.50;;
9128;SDS011;4599;50.906;6.786;2022-07-30T00:22:21;5.67;;;3.70;;
9128;SDS011;4599;50.906;6.786;2022-07-30T00:26:22;11.77;;;3.70;;
9128;SDS011;4599;50.906;6.786;2022-07-30T00:30:25;7.50;;;3.70;;
9128;SDS011;4599;50.906;6.786;2022-07-30T00:34:28;6.43;;;3.63;;
9128;SDS011;4599;50.906;6.786;2022-07-30T00:38:30;13.00;;;4.03;;
9128;SDS011;4599;50.906;6.786;2022-07-30T00:42:41;7.67;;;4.10;;
9128;SDS011;4599;50.906;6.786;2022-07-30T00:47:02;7.83;;;3.70;;
9128;SDS011;4599;50.906;6.786;2022-07-30T00:51:10;5.47;;;3.40;;
9128;SDS011;4599;50.906;6.786;2022-07-30T00:55:13;5.93;;;4.07;;
9128;SDS011;4599;50.906;6.786;2022-07-30T00:59:15;3.93;;;3.50;;
9128;SDS011;4599;50.906;6.786;2022-07-30T01:03:17;6.90;;;3.90;;
9128;SDS011;4599;50.906;6.786;2022-07-30T01:07:20;6.80;;;3.80;;
9128;SDS011;4599;50.906;6.786;2022-07-30T01:11:27;9.77;;;3.90;;
9128;SDS011;4599;50.906;6.786;2022-07-30T01:15:34;7.23;;;4.07;;
9128;SDS011;4599;50.906;6.786;2022-07-30T01:19:36;4.33;;;3.73;;
9128;SDS011;4599;50.906;6.786;2022-07-30T01:23:42;4.77;;;3.97;;
9128;SDS011;4599;50.906;6.786;2022-07-30T01:27:49;7.13;;;3.90;;
9128;SDS011;4599;50.906;6.786;2022-07-30T01:31:54;5.57;;;4.23;;
9128;SDS011;4599;50.906;6.786;2022-07-30T01:35:58;12.07;;;4.37;;
9128;SDS011;4599;50.906;6.786;2022-07-30T01:40:01;7.83;;;4.00;;
9128;SDS011;4599;50.906;6.786;2022-07-30T01:44:08;5.77;;;4.30;;
9128;SDS011;4599;50.906;6.786;2022-07-30T01:48:12;9.67;;;4.47;;
9128;SDS011;4599;50.906;6.786;2022-07-30T01:52:16;12.67;;;4.80;;
9128;SDS011;4599;50.906;6.786;2022-07-30T01:56:18;7.23;;;5.20;;
9128;SDS011;4599;50.906;6.786;2022-07-30T02:00:29;8.63;;;4.57;;
9128;SDS011;4599;50.906;6.786;2022-07-30T02:04:33;11.17;;;4.87;;
9128;SDS011;4599;50.906;6.786;2022-07-30T02:08:35;8.20;;;4.83;;
9128;SDS011;4599;50.906;6.786;2022-07-30T02:12:42;6.83;;;5.10;;
9128;SDS011;4599;50.906;6.786;2022-07-30T02:16:52;8.10;;;4.67;;
9128;SDS011;4599;50.906;6.786;2022-07-30T02:20:55;6.87;;;4.67;;
9128;SDS011;4599;50.906;6.786;2022-07-30T02:25:03;7.30;;;4.40;;
9128;SDS011;4599;50.906;6.786;2022-07-30T02:29:06;10.13;;;4.80;;
9128;SDS011;4599;50.906;6.786;2022-07-30T02:33:14;6.57;;;5.07;;
9128;SDS011;4599;50.906;6.786;2022-07-30T02:37:19;6.87;;;5.20;;
9128;SDS011;4599;50.906;6.786;2022-07-30T02:41:42;11.37;;;5.30;;
9128;SDS011;4599;50.906;6.786;2022-07-30T02:45:50;5.97;;;5.03;;
9128;SDS011;4599;50.906;6.786;2022-07-30T02:49:54;8.43;;;4.90;;
9128;SDS011;4599;50.906;6.786;2022-07-30T02:53:58;7.83;;;4.70;;
9128;SDS011;4599;50.906;6.786;2022-07-30T02:58:01;9.87;;;4.80;;
9128;SDS011;4599;50.906;6.786;2022-07-30T03:02:04;11.97;;;5.50;;
9128;SDS011;4599;50.906;6.786;2022-07-30T03:06:10;8.87;;;5.40;;
9128;SDS011;4599;50.906;6.786;2022-07-30T03:10:15;8.67;;;5.20;;
9128;SDS011;4599;50.906;6.786;2022-07-30T03:14:17;9.00;;;5.30;;
9128;SDS011;4599;50.906;6.786;2022-07-30T03:18:19;6.90;;;4.83;;
9128;SDS011;4599;50.906;6.786;2022-07-30T03:22:24;7.83;;;5.07;;
9128;SDS011;4599;50.906;6.786;2022-07-30T03:26:33;11.47;;;5.77;;
9128;SDS011;4599;50.906;6.786;2022-07-30T03:30:36;9.40;;;5.60;;
9128;SDS011;4599;50.906;6.786;2022-07-30T03:34:38;10.03;;;5.47;;
9128;SDS011;4599;50.906;6.786;2022-07-30T03:38:43;11.90;;;5.67;;
9128;SDS011;4599;50.906;6.786;2022-07-30T03:42:46;13.43;;;5.40;;
9128;SDS011;4599;50.906;6.786;2022-07-30T03:46:49;8.03;;;5.90;;
9128;SDS011;4599;50.906;6.786;2022-07-30T03:50:53;8.43;;;6.00;;
9128;SDS011;4599;50.906;6.786;2022-07-30T03:54:57;6.03;;;5.43;;
9128;SDS011;4599;50.906;6.786;2022-07-30T03:58:59;11.87;;;6.20;;
9128;SDS011;4599;50.906;6.786;2022-07-30T04:03:01;8.27;;;5.63;;
9128;SDS011;4599;50.906;6.786;2022-07-30T04:07:03;8.63;;;6.03;;
9128;SDS011;4599;50.906;6.786;2022-07-30T04:11:06;10.63;;;5.40;;
9128;SDS011;4599;50.906;6.786;2022-07-30T04:15:08;9.90;;;5.60;;
9128;SDS011;4599;50.906;6.786;2022-07-30T04:19:32;8.30;;;5.43;;
9128;SDS011;4599;50.906;6.786;2022-07-30T04:23:36;13.97;;;6.60;;
9128;SDS011;4599;50.906;6.786;2022-07-30T04:28:00;11.30;;;6.10;;
9128;SDS011;4599;50.906;6.786;2022-07-30T04:32:04;11.10;;;6.07;;
9128;SDS011;4599;50.906;6.786;2022-07-30T04:36:08;11.13;;;5.70;;
9128;SDS011;4599;50.906;6.786;2022-07-30T04:40:17;13.07;;;6.13;;
9128;SDS011;4599;50.906;6.786;2022-07-30T04:44:20;8.57;;;6.17;;
9128;SDS011;4599;50.906;6.786;2022-07-30T04:48:22;8.43;;;5.53;;
9128;SDS011;4599;50.906;6.786;2022-07-30T04:52:23;7.63;;;5.60;;
9128;SDS011;4599;50.906;6.786;2022-07-30T04:56:25;10.00;;;5.90;;
9128;SDS011;4599;50.906;6.786;2022-07-30T05:00:31;12.07;;;5.97;;
9128;SDS011;4599;50.906;6.786;2022-07-30T05:04:41;10.87;;;6.07;;
9128;SDS011;4599;50.906;6.786;2022-07-30T05:08:43;8.00;;;5.93;;
9128;SDS011;4599;50.906;6.786;2022-07-30T05:12:45;10.43;;;6.90;;
9128;SDS011;4599;50.906;6.786;2022-07-30T05:16:48;11.30;;;6.83;;
9128;SDS011;4599;50.906;6.786;2022-07-30T05:20:50;9.47;;;7.13;;
9128;SDS011;4599;50.906;6.786;2022-07-30T05:24:52;14.90;;;8.33;;
9128;SDS011;4599;50.906;6.786;2022-07-30T05:28:53;14.93;;;7.20;;
9128;SDS011;4599;50.906;6.786;2022-07-30T05:32:58;14.23;;;8.67;;
9128;SDS011;4599;50.906;6.786;2022-07-30T05:37:03;15.43;;;9.37;;
9128;SDS011;4599;50.906;6.786;2022-07-30T05:41:10;18.77;;;10.50;;
9128;SDS011;4599;50.906;6.786;2022-07-30T05:45:31;16.50;;;10.97;;
9128;SDS011;4599;50.906;6.786;2022-07-30T05:49:34;15.57;;;10.77;;
9128;SDS011;4599;50.906;6.786;2022-07-30T05:53:36;17.73;;;11.33;;
9128;SDS011;4599;50.906;6.786;2022-07-30T05:57:37;16.63;;;10.17;;
9128;SDS011;4599;50.906;6.786;2022-07-30T06:01:39;17.30;;;10.23;;
9128;SDS011;4599;50.906;6.786;2022-07-30T06:05:43;18.87;;;9.97;;
9128;SDS011;4599;50.906;6.786;2022-07-30T06:09:44;18.60;;;11.37;;
9128;SDS011;4599;50.906;6.786;2022-07-30T06:13:46;14.87;;;10.03;;
9128;SDS011;4599;50.906;6.786;2022-07-30T06:17:49;16.67;;;10.67;;
9128;SDS011;4599;50.906;6.786;2022-07-30T06:22:04;17.57;;;10.90;;
9128;SDS011;4599;50.906;6.786;2022-07-30T06:26:07;16.53;;;10.47;;
9128;SDS011;4599;50.906;6.786;2022-07-30T06:30:09;16.97;;;10.50;;
9128;SDS011;4599;50.906;6.786;2022-07-30T06:34:11;16.07;;;10.53;;
9128;SDS011;4599;50.906;6.786;2022-07-30T06:38:14;15.60;;;10.00;;
9128;SDS011;4599;50.906;6.786;2022-07-30T06:42:16;13.23;;;9.53;;
9128;SDS011;4599;50.906;6.786;2022-07-30T06:46:18;12.90;;;9.43;;
9128;SDS011;4599;50.906;6.786;2022-07-30T06:50:19;14.00;;;9.37;;
9128;SDS011;4599;50.906;6.786;2022-07-30T06:54:23;14.33;;;9.27;;
9128;SDS011;4599;50.906;6.786;2022-07-30T06:58:24;12.93;;;9.60;;
9128;SDS011;4599;50.906;6.786;2022-07-30T07:02:26;16.43;;;9.50;;
9128;SDS011;4599;50.906;6.786;2022-07-30T07:06:28;18.80;;;9.70;;
9128;SDS011;4599;50.906;6.786;2022-07-30T07:10:31;14.33;;;9.83;;
9128;SDS011;4599;50.906;6.786;2022-07-30T07:14:33;12.67;;;9.03;;
9128;SDS011;4599;50.906;6.786;2022-07-30T07:18:34;13.87;;;9.27;;
9128;SDS011;4599;50.906;6.786;2022-07-30T07:22:36;13.13;;;8.73;;
9128;SDS011;4599;50.906;6.786;2022-07-30T07:26:39;14.60;;;8.93;;
9128;SDS011;4599;50.906;6.786;2022-07-30T07:30:41;17.97;;;9.23;;
9128;SDS011;4599;50.906;6.786;2022-07-30T07:34:43;14.43;;;7.50;;
9128;SDS011;4599;50.906;6.786;2022-07-30T07:38:45;13.43;;;8.37;;
9128;SDS011;4599;50.906;6.786;2022-07-30T07:42:48;14.37;;;7.93;;
9128;SDS011;4599;50.906;6.786;2022-07-30T07:46:49;13.03;;;8.20;;
9128;SDS011;4599;50.906;6.786;2022-07-30T07:50:51;15.13;;;7.35;;
9128;SDS011;4599;50.906;6.786;2022-07-30T07:54:57;11.43;;;7.03;;
9128;SDS011;4599;50.906;6.786;2022-07-30T07:59:00;15.10;;;7.23;;
9128;SDS011;4599;50.906;6.786;2022-07-30T08:03:04;11.27;;;6.80;;
9128;SDS011;4599;50.906;6.786;2022-07-30T08:07:05;11.90;;;7.30;;
9128;SDS011;4599;50.906;6.786;2022-07-30T08:11:07;14.03;;;7.30;;
9128;SDS011;4599;50.906;6.786;2022-07-30T08:15:10;13.17;;;7.73;;
9128;SDS011;4599;50.906;6.786;2022-07-30T08:19:12;13.23;;;7.30;;
9128;SDS011;4599;50.906;6.786;2022-07-30T08:23:14;12.50;;;7.73;;
9128;SDS011;4599;50.906;6.786;2022-07-30T08:27:16;14.40;;;8.10;;
9128;SDS011;4599;50.906;6.786;2022-07-30T08:31:19;14.73;;;7.90;;
9128;SDS011;4599;50.906;6.786;2022-07-30T08:35:20;20.00;;;8.27;;
9128;SDS011;4599;50.906;6.786;2022-07-30T08:39:22;18.27;;;7.53;;
9128;SDS011;4599;50.906;6.786;2022-07-30T08:43:24;13.43;;;7.13;;
9128;SDS011;4599;50.906;6.786;2022-07-30T08:47:29;12.80;;;7.87;;
9128;SDS011;4599;50.906;6.786;2022-07-30T08:51:33;9.97;;;6.90;;
9128;SDS011;4599;50.906;6.786;2022-07-30T08:55:35;11.00;;;7.03;;
9128;SDS011;4599;50.906;6.786;2022-07-30T08:59:36;14.93;;;7.07;;
9128;SDS011;4599;50.906;6.786;2022-07-30T09:04:00;12.50;;;6.77;;
9128;SDS011;4599;50.906;6.786;2022-07-30T09:08:03;12.53;;;6.83;;
9128;SDS011;4599;50.906;6.786;2022-07-30T09:16:33;12.30;;;7.23;;
9128;SDS011;4599;50.906;6.786;2022-07-30T09:20:36;11.47;;;7.70;;
9128;SDS011;4599;50.906;6.786;2022-07-30T09:24:40;15.40;;;7.40;;
9128;SDS011;4599;50.906;6.786;2022-07-30T09:28:42;13.00;;;6.07;;
9128;SDS011;4599;50.906;6.786;2022-07-30T09:32:48;17.87;;;6.70;;
9128;SDS011;4599;50.906;6.786;2022-07-30T09:36:52;19.33;;;7.03;;
9128;SDS011;4599;50.906;6.786;2022-07-30T09:40:54;9.30;;;6.23;;
9128;SDS011;4599;50.906;6.786;2022-07-30T09:45:03;14.93;;;6.30;;
9128;SDS011;4599;50.906;6.786;2022-07-30T09:49:12;13.47;;;6.17;;
9128;SDS011;4599;50.906;6.786;2022-07-30T09:53:15;12.90;;;6.90;;
9128;SDS011;4599;50.906;6.786;2022-07-30T09:57:17;15.37;;;6.60;;
9128;SDS011;4599;50.906;6.786;2022-07-30T10:01:27;12.17;;;5.53;;
9128;SDS011;4599;50.906;6.786;2022-07-30T10:06:01;13.00;;;5.40;;
9128;SDS011;4599;50.906;6.786;2022-07-30T10:10:05;11.03;;;5.43;;
9128;SDS011;4599;50.906;6.786;2022-07-30T10:14:09;11.57;;;5.43;;
9128;SDS011;4599;50.906;6.786;2022-07-30T10:18:10;12.57;;;6.50;;
9128;SDS011;4599;50.906;6.786;2022-07-30T10:22:15;12.20;;;6.77;;
9128;SDS011;4599;50.906;6.786;2022-07-30T10:26:20;10.30;;;6.40;;
9128;SDS011;4599;50.906;6.786;2022-07-30T10:30:22;8.60;;;5.57;;
9128;SDS011;4599;50.906;6.786;2022-07-30T10:34:28;11.07;;;5.83;;
9128;SDS011;4599;50.906;6.786;2022-07-30T10:38:35;8.87;;;5.23;;
9128;SDS011;4599;50.906;6.786;2022-07-30T10:42:48;8.20;;;3.97;;
9128;SDS011;4599;50.906;6.786;2022-07-30T10:47:03;8.07;;;4.40;;
9128;SDS011;4599;50.906;6.786;2022-07-30T10:51:10;9.93;;;4.97;;
9128;SDS011;4599;50.906;6.786;2022-07-30T10:55:26;10.63;;;4.83;;
9128;SDS011;4599;50.906;6.786;2022-07-30T11:04:16;8.83;;;3.97;;
9128;SDS011;4599;50.906;6.786;2022-07-30T11:08:27;9.32;;;3.60;;
9128;SDS011;4599;50.906;6.786;2022-07-30T11:12:53;8.45;;;3.28;;
9128;SDS011;4599;50.906;6.786;2022-07-30T11:16:59;11.27;;;3.42;;
9128;SDS011;4599;50.906;6.786;2022-07-30T11:21:14;8.43;;;3.45;;
9128;SDS011;4599;50.906;6.786;2022-07-30T11:25:37;5.35;;;3.20;;
9128;SDS011;4599;50.906;6.786;2022-07-30T11:29:52;6.78;;;3.20;;
9128;SDS011;4599;50.906;6.786;2022-07-30T11:38:28;5.30;;;2.83;;
9128;SDS011;4599;50.906;6.786;2022-07-30T11:47:15;7.03;;;2.63;;
9128;SDS011;4599;50.906;6.786;2022-07-30T11:51:18;8.07;;;2.58;;
9128;SDS011;4599;50.906;6.786;2022-07-30T11:55:24;4.80;;;2.70;;
9128;SDS011;4599;50.906;6.786;2022-07-30T11:59:27;8.85;;;3.22;;
9128;SDS011;4599;50.906;6.786;2022-07-30T12:03:29;5.55;;;2.95;;
9128;SDS011;4599;50.906;6.786;2022-07-30T12:07:31;5.47;;;2.85;;
9128;SDS011;4599;50.906;6.786;2022-07-30T12:11:34;6.40;;;2.80;;
9128;SDS011;4599;50.906;6.786;2022-07-30T12:15:36;5.82;;;2.50;;
9128;SDS011;4599;50.906;6.786;2022-07-30T12:19:42;4.85;;;2.67;;
9128;SDS011;4599;50.906;6.786;2022-07-30T12:23:55;7.35;;;2.83;;
9128;SDS011;4599;50.906;6.786;2022-07-30T12:27:58;4.35;;;2.60;;
9128;SDS011;4599;50.906;6.786;2022-07-30T12:32:00;8.43;;;2.83;;
9128;SDS011;4599;50.906;6.786;2022-07-30T12:36:02;5.13;;;2.55;;
9128;SDS011;4599;50.906;6.786;2022-07-30T12:40:05;7.50;;;2.45;;
9128;SDS011;4599;50.906;6.786;2022-07-30T12:44:34;7.25;;;2.50;;
9128;SDS011;4599;50.906;6.786;2022-07-30T12:48:53;3.30;;;2.10;;
9128;SDS011;4599;50.906;6.786;2022-07-30T12:52:56;4.43;;;2.20;;
9128;SDS011;4599;50.906;6.786;2022-07-30T12:56:59;4.63;;;2.60;;
9128;SDS011;4599;50.906;6.786;2022-07-30T13:01:05;4.00;;;2.60;;
9128;SDS011;4599;50.906;6.786;2022-07-30T13:05:07;4.40;;;2.40;;
9128;SDS011;4599;50.906;6.786;2022-07-30T13:09:16;4.50;;;2.00;;
9128;SDS011;4599;50.906;6.786;2022-07-30T13:13:19;4.47;;;1.98;;
9128;SDS011;4599;50.906;6.786;2022-07-30T13:17:22;2.53;;;1.80;;
9128;SDS011;4599;50.906;6.786;2022-07-30T13:21:23;7.45;;;1.95;;
9128;SDS011;4599;50.906;6.786;2022-07-30T13:25:25;4.00;;;1.95;;
9128;SDS011;4599;50.906;6.786;2022-07-30T13:29:40;4.53;;;2.17;;
9128;SDS011;4599;50.906;6.786;2022-07-30T13:33:43;6.95;;;2.10;;
9128;SDS011;4599;50.906;6.786;2022-07-30T13:37:45;3.55;;;2.20;;
9128;SDS011;4599;50.906;6.786;2022-07-30T13:41:47;6.15;;;1.67;;
9128;SDS011;4599;50.906;6.786;2022-07-30T13:45:48;3.50;;;2.00;;
9128;SDS011;4599;50.906;6.786;2022-07-30T13:49:52;3.58;;;1.90;;
9128;SDS011;4599;50.906;6.786;2022-07-30T13:53:54;3.30;;;1.77;;
9128;SDS011;4599;50.906;6.786;2022-07-30T13:57:55;3.78;;;1.83;;
9128;SDS011;4599;50.906;6.786;2022-07-30T14:01:57;4.28;;;2.15;;
9128;SDS011;4599;50.906;6.786;2022-07-30T14:06:02;4.90;;;2.10;;
9128;SDS011;4599;50.906;6.786;2022-07-30T14:10:11;2.92;;;1.67;;
9128;SDS011;4599;50.906;6.786;2022-07-30T14:14:13;4.05;;;1.67;;
9128;SDS011;4599;50.906;6.786;2022-07-30T14:18:14;4.07;;;1.60;;
9128;SDS011;4599;50.906;6.786;2022-07-30T14:22:17;5.82;;;1.40;;
9128;SDS011;4599;50.906;6.786;2022-07-30T14:26:19;3.40;;;1.60;;
9128;SDS011;4599;50.906;6.786;2022-07-30T14:30:20;3.45;;;1.38;;
9128;SDS011;4599;50.906;6.786;2022-07-30T14:34:22;3.33;;;1.60;;
9128;SDS011;4599;50.906;6.786;2022-07-30T14:38:25;2.65;;;1.52;;
9128;SDS011;4599;50.906;6.786;2022-07-30T14:42:26;6.22;;;1.88;;
9128;SDS011;4599;50.906;6.786;2022-07-30T14:46:28;5.55;;;1.70;;
9128;SDS011;4599;50.906;6.786;2022-07-30T14:50:29;5.78;;;1.77;;
9128;SDS011;4599;50.906;6.786;2022-07-30T14:54:32;4.82;;;1.52;;
9128;SDS011;4599;50.906;6.786;2022-07-30T14:58:34;3.55;;;1.67;;
9128;SDS011;4599;50.906;6.786;2022-07-30T15:02:36;5.30;;;2.20;;
9128;SDS011;4599;50.906;6.786;2022-07-30T15:06:37;2.75;;;1.50;;
9128;SDS011;4599;50.906;6.786;2022-07-30T15:10:40;4.13;;;1.58;;
9128;SDS011;4599;50.906;6.786;2022-07-30T15:14:44;3.63;;;1.50;;
9128;SDS011;4599;50.906;6.786;2022-07-30T15:18:46;2.38;;;1.52;;
9128;SDS011;4599;50.906;6.786;2022-07-30T15:22:47;5.15;;;1.80;;
9128;SDS011;4599;50.906;6.786;2022-07-30T15:26:50;4.13;;;1.70;;
9128;SDS011;4599;50.906;6.786;2022-07-30T15:30:52;2.35;;;1.15;;
9128;SDS011;4599;50.906;6.786;2022-07-30T15:34:54;3.05;;;1.40;;
9128;SDS011;4599;50.906;6.786;2022-07-30T15:38:55;3.58;;;1.55;;
9128;SDS011;4599;50.906;6.786;2022-07-30T15:42:58;3.45;;;1.40;;
9128;SDS011;4599;50.906;6.786;2022-07-30T15:47:00;6.47;;;1.60;;
9128;SDS011;4599;50.906;6.786;2022-07-30T15:51:02;10.80;;;1.60;;
9128;SDS011;4599;50.906;6.786;2022-07-30T15:55:05;5.72;;;1.50;;
9128;SDS011;4599;50.906;6.786;2022-07-30T15:59:09;3.45;;;1.40;;
9128;SDS011;4599;50.906;6.786;2022-07-30T16:03:10;6.70;;;1.35;;
9128;SDS011;4599;50.906;6.786;2022-07-30T16:07:13;1.92;;;1.33;;
9128;SDS011;4599;50.906;6.786;2022-07-30T16:11:14;2.97;;;1.40;;
9128;SDS011;4599;50.906;6.786;2022-07-30T16:15:17;3.22;;;1.30;;
9128;SDS011;4599;50.906;6.786;2022-07-30T16:19:19;2.92;;;1.50;;
9128;SDS011;4599;50.906;6.786;2022-07-30T16:23:20;5.32;;;1.40;;
9128;SDS011;4599;50.906;6.786;2022-07-30T16:27:22;3.47;;;1.40;;
9128;SDS011;4599;50.906;6.786;2022-07-30T16:31:25;4.93;;;1.40;;
9128;SDS011;4599;50.906;6.786;2022-07-30T16:35:27;1.80;;;1.27;;
9128;SDS011;4599;50.906;6.786;2022-07-30T16:39:28;3.75;;;1.50;;
9128;SDS011;4599;50.906;6.786;2022-07-30T16:43:30;5.05;;;1.63;;
9128;SDS011;4599;50.906;6.786;2022-07-30T16:47:33;4.30;;;1.33;;
9128;SDS011;4599;50.906;6.786;2022-07-30T16:51:34;3.85;;;1.60;;
9128;SDS011;4599;50.906;6.786;2022-07-30T16:55:37;3.65;;;1.40;;
9128;SDS011;4599;50.906;6.786;2022-07-30T16:59:39;1.80;;;1.45;;
9128;SDS011;4599;50.906;6.786;2022-07-30T17:03:45;3.85;;;1.88;;
9128;SDS011;4599;50.906;6.786;2022-07-30T17:07:47;4.50;;;1.40;;
9128;SDS011;4599;50.906;6.786;2022-07-30T17:11:48;4.93;;;1.48;;
9128;SDS011;4599;50.906;6.786;2022-07-30T17:15:52;1.98;;;1.45;;
9128;SDS011;4599;50.906;6.786;2022-07-30T17:19:55;3.00;;;1.73;;
9128;SDS011;4599;50.906;6.786;2022-07-30T17:23:57;3.67;;;1.50;;
9128;SDS011;4599;50.906;6.786;2022-07-30T17:27:59;3.53;;;1.70;;
9128;SDS011;4599;50.906;6.786;2022-07-30T17:32:00;6.00;;;1.53;;
9128;SDS011;4599;50.906;6.786;2022-07-30T17:36:05;3.33;;;1.90;;
9128;SDS011;4599;50.906;6.786;2022-07-30T17:40:07;3.23;;;1.70;;
9128;SDS011;4599;50.906;6.786;2022-07-30T17:44:29;4.90;;;1.50;;
9128;SDS011;4599;50.906;6.786;2022-07-30T17:48:31;3.07;;;1.40;;
9128;SDS011;4599;50.906;6.786;2022-07-30T17:52:34;3.30;;;1.60;;
9128;SDS011;4599;50.906;6.786;2022-07-30T17:56:36;3.13;;;1.70;;
9128;SDS011;4599;50.906;6.786;2022-07-30T18:00:38;5.93;;;1.83;;
9128;SDS011;4599;50.906;6.786;2022-07-30T18:04:40;7.17;;;1.87;;
9128;SDS011;4599;50.906;6.786;2022-07-30T18:08:43;4.17;;;1.53;;
9128;SDS011;4599;50.906;6.786;2022-07-30T18:12:44;3.43;;;1.77;;
9128;SDS011;4599;50.906;6.786;2022-07-30T18:16:49;2.77;;;1.70;;
9128;SDS011;4599;50.906;6.786;2022-07-30T18:20:51;6.10;;;1.70;;
9128;SDS011;4599;50.906;6.786;2022-07-30T18:24:54;2.50;;;1.57;;
9128;SDS011;4599;50.906;6.786;2022-07-30T18:28:56;5.27;;;1.83;;
9128;SDS011;4599;50.906;6.786;2022-07-30T18:32:57;1.80;;;1.53;;
9128;SDS011;4599;50.906;6.786;2022-07-30T18:36:59;12.77;;;2.17;;
9128;SDS011;4599;50.906;6.786;2022-07-30T18:41:02;3.43;;;1.70;;
9128;SDS011;4599;50.906;6.786;2022-07-30T18:45:04;3.43;;;1.70;;
9128;SDS011;4599;50.906;6.786;2022-07-30T18:49:07;5.67;;;1.90;;
9128;SDS011;4599;50.906;6.786;2022-07-30T18:53:28;4.90;;;2.03;;
9128;SDS011;4599;50.906;6.786;2022-07-30T18:57:31;2.97;;;1.60;;
9128;SDS011;4599;50.906;6.786;2022-07-30T19:01:33;2.73;;;1.40;;
9128;SDS011;4599;50.906;6.786;2022-07-30T19:05:34;5.27;;;1.80;;
9128;SDS011;4599;50.906;6.786;2022-07-30T19:09:36;3.13;;;1.43;;
9128;SDS011;4599;50.906;6.786;2022-07-30T19:13:39;5.47;;;1.77;;
9128;SDS011;4599;50.906;6.786;2022-07-30T19:17:41;4.77;;;1.80;;
9128;SDS011;4599;50.906;6.786;2022-07-30T19:21:47;3.77;;;1.70;;
9128;SDS011;4599;50.906;6.786;2022-07-30T19:25:48;3.47;;;1.80;;
9128;SDS011;4599;50.906;6.786;2022-07-30T19:29:51;3.03;;;1.63;;
9128;SDS011;4599;50.906;6.786;2022-07-30T19:33:53;3.73;;;1.60;;
9128;SDS011;4599;50.906;6.786;2022-07-30T19:37:55;2.90;;;1.77;;
9128;SDS011;4599;50.906;6.786;2022-07-30T19:41:57;3.10;;;1.60;;
9128;SDS011;4599;50.906;6.786;2022-07-30T19:45:59;2.43;;;1.80;;
9128;SDS011;4599;50.906;6.786;2022-07-30T19:50:01;3.17;;;1.70;;
9128;SDS011;4599;50.906;6.786;2022-07-30T19:54:03;5.07;;;1.90;;
9128;SDS011;4599;50.906;6.786;2022-07-30T19:58:06;3.87;;;1.97;;
9128;SDS011;4599;50.906;6.786;2022-07-30T20:02:29;5.17;;;1.80;;
9128;SDS011;4599;50.906;6.786;2022-07-30T20:06:31;12.70;;;2.20;;
9128;SDS011;4599;50.906;6.786;2022-07-30T20:10:32;13.90;;;2.80;;
9128;SDS011;4599;50.906;6.786;2022-07-30T20:14:35;3.87;;;1.83;;
9128;SDS011;4599;50.906;6.786;2022-07-30T20:18:44;2.67;;;1.53;;
9128;SDS011;4599;50.906;6.786;2022-07-30T20:22:48;4.97;;;1.83;;
9128;SDS011;4599;50.906;6.786;2022-07-30T20:26:50;3.67;;;2.20;;
9128;SDS011;4599;50.906;6.786;2022-07-30T20:30:51;4.00;;;2.50;;
9128;SDS011;4599;50.906;6.786;2022-07-30T20:34:54;5.17;;;3.13;;
9128;SDS011;4599;50.906;6.786;2022-07-30T20:38:56;10.33;;;3.93;;
9128;SDS011;4599;50.906;6.786;2022-07-30T20:42:57;11.23;;;4.03;;
9128;SDS011;4599;50.906;6.786;2022-07-30T20:47:00;5.83;;;3.30;;
9128;SDS011;4599;50.906;6.786;2022-07-30T20:51:10;4.73;;;3.10;;
9128;SDS011;4599;50.906;6.786;2022-07-30T20:55:12;4.53;;;2.50;;
9128;SDS011;4599;50.906;6.786;2022-07-30T20:59:16;4.40;;;2.10;;
9128;SDS011;4599;50.906;6.786;2022-07-30T21:03:22;3.50;;;1.73;;
9128;SDS011;4599;50.906;6.786;2022-07-30T21:07:27;3.57;;;1.67;;
9128;SDS011;4599;50.906;6.786;2022-07-30T21:11:37;9.33;;;1.80;;
9128;SDS011;4599;50.906;6.786;2022-07-30T21:15:43;4.23;;;2.10;;
9128;SDS011;4599;50.906;6.786;2022-07-30T21:20:03;4.00;;;1.93;;
9128;SDS011;4599;50.906;6.786;2022-07-30T21:24:09;2.43;;;1.97;;
9128;SDS011;4599;50.906;6.786;2022-07-30T21:28:12;3.50;;;1.90;;
9128;SDS011;4599;50.906;6.786;2022-07-30T21:32:33;2.83;;;1.77;;
9128;SDS011;4599;50.906;6.786;2022-07-30T21:36:35;4.00;;;1.70;;
9128;SDS011;4599;50.906;6.786;2022-07-30T21:40:39;6.37;;;2.07;;
9128;SDS011;4599;50.906;6.786;2022-07-30T21:44:41;4.83;;;1.93;;
9128;SDS011;4599;50.906;6.786;2022-07-30T21:48:43;6.83;;;2.30;;
9128;SDS011;4599;50.906;6.786;2022-07-30T21:52:45;2.83;;;1.70;;
9128;SDS011;4599;50.906;6.786;2022-07-30T21:56:48;2.33;;;1.80;;
9128;SDS011;4599;50.906;6.786;2022-07-30T22:01:00;3.13;;;2.00;;
9128;SDS011;4599;50.906;6.786;2022-07-30T22:05:17;5.67;;;1.90;;
9128;SDS011;4599;50.906;6.786;2022-07-30T22:09:22;3.07;;;1.90;;
9128;SDS011;4599;50.906;6.786;2022-07-30T22:13:36;3.67;;;2.10;;
9128;SDS011;4599;50.906;6.786;2022-07-30T22:17:55;5.17;;;1.97;;
9128;SDS011;4599;50.906;6.786;2022-07-30T22:22:01;3.23;;;2.10;;
9128;SDS011;4599;50.906;6.786;2022-07-30T22:26:23;3.03;;;2.10;;
9128;SDS011;4599;50.906;6.786;2022-07-30T22:30:29;4.00;;;2.07;;
9128;SDS011;4599;50.906;6.786;2022-07-30T22:34:31;3.70;;;2.00;;
9128;SDS011;4599;50.906;6.786;2022-07-30T22:38:32;4.30;;;2.53;;
9128;SDS011;4599;50.906;6.786;2022-07-30T22:42:34;5.00;;;2.30;;
9128;SDS011;4599;50.906;6.786;2022-07-30T22:46:51;5.30;;;2.20;;
9128;SDS011;4599;50.906;6.786;2022-07-30T22:50:56;3.50;;;2.20;;
9128;SDS011;4599;50.906;6.786;2022-07-30T22:54:59;6.17;;;2.23;;
9128;SDS011;4599;50.906;6.786;2022-07-30T22:59:11;3.40;;;2.00;;
9128;SDS011;4599;50.906;6.786;2022-07-30T23:03:16;5.20;;;2.20;;
9128;SDS011;4599;50.906;6.786;2022-07-30T23:07:18;3.73;;;1.90;;
9128;SDS011;4599;50.906;6.786;2022-07-30T23:11:20;3.33;;;2.20;;
9128;SDS011;4599;50.906;6.786;2022-07-30T23:15:22;2.20;;;2.00;;
9128;SDS011;4599;50.906;6.786;2022-07-30T23:19:25;3.07;;;2.40;;
9128;SDS011;4599;50.906;6.786;2022-07-30T23:23:26;5.97;;;2.47;;
9128;SDS011;4599;50.906;6.786;2022-07-30T23:27:31;2.70;;;2.47;;
9128;SDS011;4599;50.906;6.786;2022-07-30T23:31:33;4.63;;;2.63;;
9128;SDS011;4599;50.906;6.786;2022-07-30T23:35:36;5.83;;;2.50;;
9128;SDS011;4599;50.906;6.786;2022-07-30T23:39:37;4.70;;;2.00;;
9128;SDS011;4599;50.906;6.786;2022-07-30T23:43:39;3.90;;;2.00;;
9128;SDS011;4599;50.906;6.786;2022-07-30T23:47:40;3.07;;;2.20;;
9128;SDS011;4599;50.906;6.786;2022-07-30T23:52:04;2.27;;;1.87;;
9128;SDS011;4599;50.906;6.786;2022-07-30T23:56:05;5.23;;;2.20;;
